Cap Isabel — VRGA2 — position and weather

sailwx.info

Track history (hours):
 
Tides and Currents Weather Stations Pressure Air Temp Water Temp Dewpoint Dewpoint Depression Visibility Wind Speed Wind Dir Waves Ship Positions

Cap Isabel

Last reported at 2016-Apr-26 16:07 UTC. Time now 2016-May-02 01:27 UTC.
Position N 09°16' W 079°55'.

Length 264 m; draft 10.7 m.

Type: Ship (hazmat cat C). MMSI: 477639500.

Date/timePositionNaut miles runAvg speedWind from/ knotsBaromVisibWave heightAir tempDewpointWater temp
2016-Apr-26 16:07N 09°16' W 079°55'  
2016-Apr-21 02:33N 25°28' W 079°54'1818.3
2016-Apr-21 01:33N 25°46' W 079°59'1918.6
2016-Apr-21 00:33N 26°04' W 080°04'3 2.5
2016-Apr-20 23:32N 26°04' W 080°07'0 0.0
2016-Apr-20 22:32N 26°04' W 080°07'0 0.0
2016-Apr-20 21:32N 26°04' W 080°07'0 0.0
2016-Apr-20 20:32N 26°04' W 080°07'0 0.0
2016-Apr-20 19:32N 26°04' W 080°07'0 0.0
2016-Apr-20 18:32N 26°04' W 080°07'0 0.0
2016-Apr-20 17:26N 26°04' W 080°07'0 0.0
2016-Apr-20 16:32N 26°04' W 080°07'0 0.0
2016-Apr-20 15:32N 26°04' W 080°07'0 0.4
2016-Apr-20 14:33N 26°05' W 080°07'6 5.6
2016-Apr-20 13:33N 26°08' W 080°02'1313.0
2016-Apr-20 12:33N 26°21' W 079°59'1312.6
2016-Apr-20 11:33N 26°33' W 079°57'1212.3
2016-Apr-20 10:33N 26°46' W 079°55'1211.7
2016-Apr-20 09:33N 26°57' W 079°56'30215.6
2016-Apr-19 14:11N 31°59' W 079°46'202 6.2
2016-Apr-18 05:33N 34°02' W 076°35'2519.7
2016-Apr-18 04:18N 34°17' W 076°11'15412.1
2016-Apr-17 15:33N 36°51' W 075°51'10 9.8
2016-Apr-17 14:33N 36°57' W 075°60'6416.0
2016-Apr-17 10:33N 38°00' W 076°12'4018.1
2016-Apr-17 08:22N 38°39' W 076°25'1417.4
2016-Apr-17 07:33N 38°53' W 076°24'1413.8
2016-Apr-17 06:33N 39°07' W 076°24'1111.0
2016-Apr-17 05:33N 39°15' W 076°33'1 0.7
2016-Apr-17 04:33N 39°15' W 076°33'0 0.0
2016-Apr-17 03:33N 39°15' W 076°33'0 0.0
2016-Apr-17 02:33N 39°15' W 076°33'0 0.0
2016-Apr-17 01:33N 39°15' W 076°33'0 0.0
2016-Apr-17 00:33N 39°15' W 076°33'0 0.0
2016-Apr-16 23:33N 39°15' W 076°33'0 0.0
2016-Apr-16 22:33N 39°15' W 076°33'0 0.0
2016-Apr-16 21:33N 39°15' W 076°33'0 0.0
2016-Apr-16 20:33N 39°15' W 076°33'0 0.0
2016-Apr-16 19:30N 39°15' W 076°33'0 0.0
2016-Apr-16 18:33N 39°15' W 076°33'0 0.0
2016-Apr-16 17:33N 39°15' W 076°33'0 0.0
2016-Apr-16 16:33N 39°15' W 076°33'  
Track history (hours):
 
Tides and Currents Weather Stations Pressure Air Temp Water Temp Dewpoint Dewpoint Depression Visibility Wind Speed Wind Dir Waves Ship Positions

Cap Isabel

Last reported at 2016-Apr-26 16:07 UTC. Time now 2016-May-02 01:27 UTC.
Position N 09°16' W 079°55'.

Length 264 m; draft 10.7 m.

Type: Ship (hazmat cat C). MMSI: 477639500.

Date/timePositionNaut miles runAvg speedWind from/ knotsBaromVisibWave heightAir tempDewpointWater temp
2016-Apr-26 16:07N 09°16' W 079°55'  
2016-Apr-21 02:33N 25°28' W 079°54'1818.3
2016-Apr-21 01:33N 25°46' W 079°59'1918.6
2016-Apr-21 00:33N 26°04' W 080°04'3 2.5
2016-Apr-20 23:32N 26°04' W 080°07'0 0.0
2016-Apr-20 22:32N 26°04' W 080°07'0 0.0
2016-Apr-20 21:32N 26°04' W 080°07'0 0.0
2016-Apr-20 20:32N 26°04' W 080°07'0 0.0
2016-Apr-20 19:32N 26°04' W 080°07'0 0.0
2016-Apr-20 18:32N 26°04' W 080°07'0 0.0
2016-Apr-20 17:26N 26°04' W 080°07'0 0.0
2016-Apr-20 16:32N 26°04' W 080°07'0 0.0
2016-Apr-20 15:32N 26°04' W 080°07'0 0.4
2016-Apr-20 14:33N 26°05' W 080°07'6 5.6
2016-Apr-20 13:33N 26°08' W 080°02'1313.0
2016-Apr-20 12:33N 26°21' W 079°59'1312.6
2016-Apr-20 11:33N 26°33' W 079°57'1212.3
2016-Apr-20 10:33N 26°46' W 079°55'1211.7
2016-Apr-20 09:33N 26°57' W 079°56'30215.6
2016-Apr-19 14:11N 31°59' W 079°46'202 6.2
2016-Apr-18 05:33N 34°02' W 076°35'2519.7
2016-Apr-18 04:18N 34°17' W 076°11'15412.1
2016-Apr-17 15:33N 36°51' W 075°51'10 9.8
2016-Apr-17 14:33N 36°57' W 075°60'6416.0
2016-Apr-17 10:33N 38°00' W 076°12'4018.1
2016-Apr-17 08:22N 38°39' W 076°25'1417.4
2016-Apr-17 07:33N 38°53' W 076°24'1413.8
2016-Apr-17 06:33N 39°07' W 076°24'1111.0
2016-Apr-17 05:33N 39°15' W 076°33'1 0.7
2016-Apr-17 04:33N 39°15' W 076°33'0 0.0
2016-Apr-17 03:33N 39°15' W 076°33'0 0.0
2016-Apr-17 02:33N 39°15' W 076°33'0 0.0
2016-Apr-17 01:33N 39°15' W 076°33'0 0.0
2016-Apr-17 00:33N 39°15' W 076°33'0 0.0
2016-Apr-16 23:33N 39°15' W 076°33'0 0.0
2016-Apr-16 22:33N 39°15' W 076°33'0 0.0
2016-Apr-16 21:33N 39°15' W 076°33'0 0.0
2016-Apr-16 20:33N 39°15' W 076°33'0 0.0
2016-Apr-16 19:30N 39°15' W 076°33'0 0.0
2016-Apr-16 18:33N 39°15' W 076°33'0 0.0
2016-Apr-16 17:33N 39°15' W 076°33'0 0.0
2016-Apr-16 16:33N 39°15' W 076°33'  

Dump ship's entire track history